createdAt,value
2023-05-10T00:04:37.137Z,85.89
2023-05-10T00:09:39.992Z,86.49
2023-05-10T00:14:42.749Z,84.89
2023-05-10T00:19:46.908Z,85.95
2023-05-10T00:24:49.675Z,86.68
2023-05-10T00:29:52.534Z,85.99
2023-05-10T00:34:57.075Z,86.74
2023-05-10T00:39:59.935Z,87.58
2023-05-10T00:45:03.683Z,87.43
2023-05-10T00:50:10.069Z,87.60
2023-05-10T00:55:13.941Z,87.57
2023-05-10T01:00:19.192Z,86.35
2023-05-10T01:05:23.878Z,86.91
2023-05-10T01:10:27.244Z,87.15
2023-05-10T01:15:30.093Z,88.44
2023-05-10T01:20:41.696Z,88.28
2023-05-10T01:26:26.625Z,87.58
2023-05-10T01:31:45.093Z,87.48
2023-05-10T01:36:54.475Z,87.84
2023-05-10T01:42:03.178Z,88.22
2023-05-10T01:47:10.691Z,88.61
2023-05-10T01:52:18.457Z,87.54
2023-05-10T01:57:23.995Z,89.18
2023-05-10T02:02:29.580Z,89.44
2023-05-10T02:07:35.176Z,89.02
2023-05-10T02:12:41.729Z,89.97
2023-05-10T02:17:45.315Z,89.47
2023-05-10T02:22:51.364Z,90.06
2023-05-10T02:27:56.519Z,89.96
2023-05-10T02:32:59.772Z,91.14
2023-05-10T02:38:04.462Z,90.28
2023-05-10T02:43:11.346Z,89.61
2023-05-10T02:48:14.195Z,89.75
2023-05-10T02:53:22.946Z,88.64
2023-05-10T02:58:26.347Z,90.12
2023-05-10T03:03:29.124Z,89.56
2023-05-10T03:08:33.513Z,89.08
2023-05-10T03:13:44.432Z,89.17
2023-05-10T03:18:56.829Z,89.12
2023-05-10T03:24:07.482Z,89.23
2023-05-10T03:29:13.376Z,89.86
2023-05-10T03:34:16.480Z,89.33
2023-05-10T03:39:22.231Z,89.58
2023-05-10T03:44:30.089Z,89.01
2023-05-10T03:49:33.186Z,89.73
2023-05-10T03:54:37.767Z,91.35
2023-05-10T03:59:41.422Z,91.74
2023-05-10T04:04:44.206Z,90.62
2023-05-10T04:09:49.580Z,91.14
2023-05-10T04:14:52.423Z,90.98
2023-05-10T04:19:55.689Z,91.25
2023-05-10T04:24:59.877Z,91.61
2023-05-10T04:30:03.143Z,90.94
2023-05-10T04:35:06.418Z,92.35
2023-05-10T04:40:11.925Z,95.56
2023-05-10T04:45:15.584Z,94.44
2023-05-10T04:50:18.839Z,95.04
2023-05-10T04:55:23.227Z,94.14
2023-05-10T05:00:27.182Z,93.76
2023-05-10T05:05:29.917Z,94.72
2023-05-10T05:10:34.050Z,94.45
2023-05-10T05:15:36.912Z,94.27
2023-05-10T05:20:39.665Z,93.63
2023-05-10T05:25:44.047Z,92.52
2023-05-10T05:30:47.021Z,92.98
2023-05-10T05:35:51.736Z,91.66
2023-05-10T05:40:55.967Z,92.27
2023-05-10T05:45:59.603Z,91.43
2023-05-10T05:51:02.611Z,92.23
2023-05-10T05:56:07.392Z,91.00
2023-05-10T06:01:10.207Z,91.92
2023-05-10T06:06:13.460Z,91.39
2023-05-10T06:11:17.620Z,91.74
2023-05-10T06:16:20.423Z,93.16
2023-05-10T06:21:23.357Z,93.96
2023-05-10T06:26:27.544Z,92.52
2023-05-10T06:31:30.343Z,91.41
2023-05-10T06:36:33.161Z,92.16
2023-05-10T06:41:37.463Z,92.27
2023-05-10T06:46:40.311Z,92.59
2023-05-10T06:51:43.237Z,94.43
2023-05-10T06:56:47.404Z,92.65
2023-05-10T07:01:50.279Z,92.70
2023-05-10T07:06:53.196Z,90.39
2023-05-10T07:11:58.263Z,90.20
2023-05-10T07:17:01.059Z,90.56
2023-05-10T07:22:03.948Z,89.44
2023-05-10T07:27:08.157Z,88.59
2023-05-10T07:32:11.045Z,88.72
2023-05-10T07:37:13.802Z,87.68
2023-05-10T07:42:17.956Z,84.78
2023-05-10T07:47:20.782Z,82.88
2023-05-10T07:52:23.595Z,84.81
2023-05-10T07:57:27.801Z,83.73
2023-05-10T08:02:30.758Z,83.60
2023-05-10T08:07:34.539Z,84.55
2023-05-10T08:12:38.770Z,84.78
2023-05-10T08:17:41.612Z,83.13
2023-05-10T08:22:44.448Z,83.40
2023-05-10T08:27:48.656Z,81.85
2023-05-10T08:32:51.455Z,81.49
2023-05-10T08:37:54.229Z,82.89
2023-05-10T08:43:06.557Z,81.90
2023-05-10T08:48:10.910Z,80.18
2023-05-10T08:53:15.091Z,79.01
2023-05-10T08:58:20.450Z,74.62
2023-05-10T09:03:23.257Z,74.48
2023-05-10T09:08:27.555Z,72.69
2023-05-10T09:13:32.120Z,74.81
2023-05-10T09:18:34.977Z,76.54
2023-05-10T09:23:37.786Z,79.65
2023-05-10T09:28:54.366Z,79.13
2023-05-10T09:33:57.668Z,84.23
2023-05-10T09:39:00.436Z,87.82
2023-05-10T09:44:04.688Z,89.60
2023-05-10T09:49:07.795Z,87.77
2023-05-10T09:54:12.127Z,87.38
2023-05-10T09:59:16.359Z,86.89
2023-05-10T10:04:19.377Z,87.22
2023-05-10T10:09:22.203Z,83.44
2023-05-10T10:14:26.809Z,76.47
2023-05-10T10:19:30.417Z,75.57
2023-05-10T10:24:33.254Z,73.55
2023-05-10T10:29:43.169Z,71.47
2023-05-10T10:34:46.240Z,71.77
2023-05-10T10:39:50.663Z,66.42
2023-05-10T10:45:14.572Z,68.77
2023-05-10T10:50:17.995Z,66.15
2023-05-10T10:55:24.206Z,61.40
2023-05-10T11:00:33.310Z,63.40
2023-05-10T11:05:39.201Z,66.03
2023-05-10T11:10:52.862Z,59.89
2023-05-10T11:15:58.015Z,56.84
2023-05-10T11:21:03.806Z,58.61
2023-05-10T11:26:10.346Z,56.22
2023-05-10T11:31:15.713Z,58.43
2023-05-10T11:36:20.712Z,54.58
2023-05-10T11:41:24.925Z,55.93
2023-05-10T11:46:30.472Z,54.96
2023-05-10T11:51:36.633Z,48.15
2023-05-10T11:56:39.711Z,48.84
2023-05-10T12:01:44.054Z,54.68
2023-05-10T12:06:47.517Z,54.43
2023-05-10T12:11:50.403Z,54.96
2023-05-10T12:16:54.655Z,54.74
2023-05-10T12:21:57.443Z,54.40
2023-05-10T12:27:00.285Z,56.51
2023-05-10T12:32:04.936Z,58.15
2023-05-10T12:37:08.075Z,59.74
2023-05-10T12:42:11.514Z,57.76
2023-05-10T12:47:15.713Z,55.88
2023-05-10T12:52:18.517Z,53.73
2023-05-10T12:57:22.391Z,55.52
2023-05-10T13:02:26.664Z,57.75
2023-05-10T13:07:29.492Z,56.77
2023-05-10T13:12:32.290Z,55.63
2023-05-10T13:17:36.525Z,54.22
2023-05-10T13:22:40.722Z,50.75
2023-05-10T13:27:43.738Z,49.94
2023-05-10T13:32:47.955Z,49.47
2023-05-10T13:37:50.825Z,52.13
2023-05-10T13:42:53.996Z,55.28
2023-05-10T13:47:58.274Z,58.39
2023-05-10T13:53:01.157Z,63.06
2023-05-10T13:58:03.974Z,67.27
2023-05-10T14:03:10.248Z,66.10
2023-05-10T14:08:14.145Z,69.43
2023-05-10T14:13:17.247Z,72.30
2023-05-10T14:18:21.546Z,76.08
2023-05-10T14:23:25.948Z,77.53
2023-05-10T14:28:28.942Z,79.87
2023-05-10T14:33:33.115Z,80.06
2023-05-10T14:38:35.925Z,78.97
2023-05-10T14:43:38.650Z,78.49
2023-05-10T14:48:42.895Z,79.38
2023-05-10T14:53:45.696Z,79.05
2023-05-10T14:58:48.446Z,78.43
2023-05-10T15:03:52.784Z,78.81
2023-05-10T15:08:56.243Z,78.66
2023-05-10T15:13:59.032Z,77.94
2023-05-10T15:19:03.525Z,76.15
2023-05-10T15:24:06.801Z,73.56
2023-05-10T15:29:09.624Z,74.63
2023-05-10T15:34:13.744Z,72.95
2023-05-10T15:39:16.407Z,72.47
2023-05-10T15:44:19.486Z,72.51
2023-05-10T15:49:23.662Z,72.65
2023-05-10T15:54:26.818Z,71.91
2023-05-10T15:59:29.671Z,71.04
2023-05-10T16:04:33.800Z,71.29
2023-05-10T16:09:36.591Z,70.13
2023-05-10T16:14:39.426Z,70.28
2023-05-10T16:19:43.638Z,70.73
2023-05-10T16:24:46.670Z,70.41
2023-05-10T16:29:49.646Z,70.04
2023-05-10T16:34:54.272Z,71.53
2023-05-10T16:39:57.041Z,73.69
2023-05-10T16:45:07.127Z,74.78
2023-05-10T16:50:11.851Z,72.94
2023-05-10T16:55:14.834Z,73.51
2023-05-10T17:00:20.580Z,74.82
2023-05-10T17:05:24.837Z,76.09
2023-05-10T17:10:27.664Z,80.23
2023-05-10T17:15:30.704Z,83.05
2023-05-10T17:20:35.001Z,84.42
2023-05-10T17:25:37.890Z,85.64
2023-05-10T17:30:40.718Z,86.49
2023-05-10T17:35:47.369Z,87.09
2023-05-10T17:40:50.145Z,86.91
2023-05-10T17:45:53.008Z,87.64
2023-05-10T17:50:57.420Z,87.51
2023-05-10T17:56:01.538Z,88.26
2023-05-10T18:01:04.399Z,88.11
2023-05-10T18:06:08.666Z,88.02
2023-05-10T18:11:11.511Z,87.85
2023-05-10T18:16:14.279Z,87.48
2023-05-10T18:21:18.860Z,86.83
2023-05-10T18:26:21.681Z,86.92
2023-05-10T18:31:24.786Z,87.59
2023-05-10T18:36:29.494Z,86.15
2023-05-10T18:41:32.282Z,86.81
2023-05-10T18:46:35.652Z,87.33
2023-05-10T18:51:40.103Z,86.67
2023-05-10T18:56:45.058Z,87.08
2023-05-10T19:01:49.560Z,86.90
2023-05-10T19:06:55.852Z,87.08
2023-05-10T19:11:58.762Z,86.64
2023-05-10T19:17:01.553Z,87.91
2023-05-10T19:22:05.770Z,87.09
2023-05-10T19:27:09.093Z,87.40
2023-05-10T19:32:12.084Z,87.39
2023-05-10T19:37:16.261Z,87.54
2023-05-10T19:42:19.036Z,88.43
2023-05-10T19:47:21.824Z,88.31
2023-05-10T19:52:26.023Z,88.72
2023-05-10T19:57:28.871Z,89.03
2023-05-10T20:02:31.647Z,88.82
2023-05-10T20:07:35.811Z,88.99
2023-05-10T20:12:38.683Z,88.85
2023-05-10T20:17:41.666Z,88.72
2023-05-10T20:22:45.857Z,89.00
2023-05-10T20:27:50.748Z,89.08
2023-05-10T20:32:53.592Z,89.10
2023-05-10T20:37:57.790Z,88.68
2023-05-10T20:43:00.602Z,89.17
2023-05-10T20:48:03.677Z,89.06
2023-05-10T20:53:07.821Z,89.31
2023-05-10T20:58:10.585Z,88.71
2023-05-10T21:03:15.096Z,89.44
2023-05-10T21:08:19.332Z,89.39
2023-05-10T21:13:22.175Z,88.56
2023-05-10T21:18:25.185Z,88.30
2023-05-10T21:23:29.392Z,88.45
2023-05-10T21:28:32.160Z,88.89
2023-05-10T21:33:35.297Z,88.71
2023-05-10T21:38:39.431Z,88.73
2023-05-10T21:43:42.219Z,89.07
2023-05-10T21:48:45.024Z,89.90
2023-05-10T21:53:49.415Z,89.87
2023-05-10T21:58:52.172Z,89.41
2023-05-10T22:03:54.944Z,89.23
2023-05-10T22:08:59.065Z,89.67
2023-05-10T22:14:01.815Z,89.54
2023-05-10T22:19:04.724Z,89.78
2023-05-10T22:24:09.071Z,89.61
2023-05-10T22:29:11.934Z,89.66
2023-05-10T22:34:14.707Z,89.15
2023-05-10T22:39:18.819Z,89.41
2023-05-10T22:44:21.919Z,89.82
2023-05-10T22:49:24.708Z,89.80
2023-05-10T22:54:28.888Z,89.91
2023-05-10T22:59:31.865Z,90.55
2023-05-10T23:04:34.699Z,90.01
2023-05-10T23:09:38.921Z,90.27
2023-05-10T23:14:42.340Z,89.88
2023-05-10T23:19:45.162Z,89.90
2023-05-10T23:24:49.254Z,90.15
2023-05-10T23:29:55.450Z,89.93
2023-05-10T23:34:58.367Z,89.49
2023-05-10T23:40:03.069Z,89.30
2023-05-10T23:45:06.644Z,89.84
2023-05-10T23:50:10.482Z,89.89
2023-05-10T23:55:14.841Z,89.96
